Time;durP1;ratioP1;P1;durP2;ratioP2;P2;SDS_P1;SDS_P2;PMS_P1;PMS_P2;Temp;Humidity;BMP_temperature;BMP_pressure;BME280_temperature;BME280_humidity;BME280_pressure;Samples;Min_cycle;Max_cycle;Signal;HPM_P1;HPM_P2
2021/03/23 00:00:15;;;;;;;23.08;16.27;;;7.80;99.90;;;;;;5003758;28;20103;-74
2021/03/23 00:02:45;;;;;;;21.40;16.42;;;7.80;99.90;;;;;;5004231;28;20379;-73
2021/03/23 00:05:12;;;;;;;23.70;17.58;;;7.80;99.90;;;;;;5005232;28;20128;-74
2021/03/23 00:07:38;;;;;;;27.42;18.15;;;7.80;99.90;;;;;;5001161;28;20049;-73
2021/03/23 00:10:07;;;;;;;24.20;17.35;;;7.80;99.90;;;;;;5003869;28;20073;-73
2021/03/23 00:12:35;;;;;;;27.13;17.17;;;7.80;99.90;;;;;;5002951;28;20078;-74
2021/03/23 00:15:02;;;;;;;30.65;18.05;;;7.80;99.90;;;;;;5001802;28;20045;-73
2021/03/23 00:17:29;;;;;;;29.15;18.02;;;7.70;99.90;;;;;;5003439;28;20063;-73
2021/03/23 00:19:55;;;;;;;30.02;19.25;;;7.70;99.90;;;;;;5003047;28;20155;-74
2021/03/23 00:22:21;;;;;;;28.02;18.98;;;7.70;99.90;;;;;;5001775;28;20483;-73
2021/03/23 00:24:48;;;;;;;28.40;18.55;;;7.60;99.90;;;;;;5003466;28;20125;-73
2021/03/23 00:27:15;;;;;;;28.30;18.83;;;7.70;99.90;;;;;;5002409;28;20092;-72
2021/03/23 00:29:43;;;;;;;29.90;18.50;;;7.70;99.90;;;;;;5001685;28;20054;-73
2021/03/23 00:32:10;;;;;;;30.08;18.65;;;7.70;99.90;;;;;;5003213;28;20088;-73
2021/03/23 00:34:37;;;;;;;26.10;18.70;;;7.80;99.90;;;;;;5003019;28;20097;-73
2021/03/23 00:37:04;;;;;;;27.95;19.20;;;7.70;99.90;;;;;;5001037;28;20046;-72
2021/03/23 00:39:30;;;;;;;29.48;19.30;;;7.60;99.90;;;;;;5028149;28;20088;-73
2021/03/23 00:41:56;;;;;;;29.17;18.92;;;7.60;99.90;;;;;;5031767;28;20468;-73
2021/03/23 00:44:24;;;;;;;30.80;19.33;;;7.60;99.90;;;;;;5032288;28;20209;-72
2021/03/23 00:46:50;;;;;;;31.80;20.20;;;7.60;99.90;;;;;;5031890;28;20144;-72
2021/03/23 00:49:17;;;;;;;32.08;19.48;;;7.50;99.90;;;;;;5031936;28;20485;-72
2021/03/23 00:51:43;;;;;;;31.63;19.15;;;7.50;99.90;;;;;;5031281;28;20045;-74
2021/03/23 00:54:09;;;;;;;30.58;19.58;;;7.50;99.90;;;;;;5032139;28;20041;-74
2021/03/23 00:56:36;;;;;;;30.58;19.55;;;7.60;99.90;;;;;;5032126;28;20128;-75
2021/03/23 00:59:02;;;;;;;33.60;18.75;;;7.60;99.90;;;;;;5031941;28;20137;-75
2021/03/23 01:01:29;;;;;;;26.17;19.13;;;7.70;99.90;;;;;;5032411;28;20085;-73
2021/03/23 01:03:56;;;;;;;32.95;19.77;;;7.70;99.90;;;;;;5032016;28;20140;-74
2021/03/23 01:06:22;;;;;;;27.77;19.25;;;7.80;99.90;;;;;;5031807;28;20049;-74
2021/03/23 01:08:48;;;;;;;29.58;19.85;;;7.80;99.90;;;;;;5031816;28;20519;-75
2021/03/23 01:11:15;;;;;;;31.50;19.13;;;7.80;99.90;;;;;;5032164;28;20136;-74
2021/03/23 01:13:41;;;;;;;31.33;19.85;;;7.90;99.90;;;;;;5032192;28;20053;-73
2021/03/23 01:16:08;;;;;;;27.70;20.13;;;7.90;99.90;;;;;;5031950;28;20103;-73
2021/03/23 01:18:35;;;;;;;29.98;19.75;;;7.90;99.90;;;;;;5031247;28;20050;-74
2021/03/23 01:21:02;;;;;;;34.05;22.10;;;7.90;99.90;;;;;;5031838;28;20132;-74
2021/03/23 01:23:28;;;;;;;31.52;21.65;;;7.80;99.90;;;;;;5031670;28;20141;-74
2021/03/23 01:25:55;;;;;;;30.45;21.33;;;7.80;99.90;;;;;;5031777;28;20045;-74
2021/03/23 01:28:21;;;;;;;29.65;20.88;;;7.70;99.90;;;;;;5031528;28;20053;-72
2021/03/23 01:30:47;;;;;;;33.55;21.63;;;7.70;99.90;;;;;;5031721;28;20133;-74
2021/03/23 01:33:14;;;;;;;31.27;21.60;;;7.70;99.90;;;;;;5031759;28;20124;-74
2021/03/23 01:35:41;;;;;;;33.63;23.02;;;7.70;99.90;;;;;;5031653;28;20146;-76
2021/03/23 01:38:08;;;;;;;35.65;23.38;;;7.70;99.90;;;;;;5039801;28;20053;-73
2021/03/23 01:40:36;;;;;;;35.40;23.65;;;7.60;99.90;;;;;;5042800;28;20080;-73
2021/03/23 01:43:05;;;;;;;42.08;23.83;;;7.50;99.90;;;;;;5045567;28;20064;-75
2021/03/23 01:45:35;;;;;;;36.10;24.48;;;7.40;99.90;;;;;;5035209;28;20128;-74
2021/03/23 01:48:04;;;;;;;42.15;24.67;;;7.40;99.90;;;;;;5032080;28;20049;-73
2021/03/23 01:50:31;;;;;;;38.90;25.17;;;7.40;99.90;;;;;;5031396;28;20050;-74
2021/03/23 01:53:05;;;;;;;36.95;24.80;;;7.40;99.90;;;;;;5031928;28;20240;-74
2021/03/23 01:55:32;;;;;;;40.10;25.65;;;7.40;99.90;;;;;;5031798;28;20413;-73
2021/03/23 01:57:58;;;;;;;43.13;26.65;;;7.40;99.90;;;;;;5031295;28;20045;-73
2021/03/23 02:00:26;;;;;;;40.38;26.77;;;7.30;99.90;;;;;;5031306;28;20132;-73
2021/03/23 02:02:52;;;;;;;41.78;27.52;;;7.30;99.90;;;;;;5031423;28;20147;-75
2021/03/23 02:05:26;;;;;;;48.22;27.02;;;7.30;99.90;;;;;;5031500;28;20091;-73
2021/03/23 02:07:53;;;;;;;41.40;27.98;;;7.20;99.90;;;;;;5031277;28;20196;-72
2021/03/23 02:10:21;;;;;;;44.92;28.45;;;7.10;99.90;;;;;;5031231;28;20144;-73
2021/03/23 02:12:49;;;;;;;45.33;28.40;;;7.20;99.90;;;;;;5031511;28;20450;-74
2021/03/23 02:15:17;;;;;;;43.25;27.92;;;7.10;99.90;;;;;;5031783;28;20053;-73
2021/03/23 02:17:44;;;;;;;44.75;26.90;;;7.10;99.90;;;;;;5030949;28;20572;-74
2021/03/23 02:20:14;;;;;;;44.72;28.30;;;7.10;99.90;;;;;;5031469;28;20140;-74
2021/03/23 02:22:42;;;;;;;45.63;27.70;;;7.10;99.90;;;;;;5031342;28;20454;-74
2021/03/23 02:25:14;;;;;;;46.60;27.20;;;7.10;99.90;;;;;;5031266;28;20128;-74
2021/03/23 02:27:41;;;;;;;41.78;26.45;;;7.10;99.90;;;;;;5030875;28;20095;-74
2021/03/23 02:30:13;;;;;;;44.60;27.27;;;7.20;99.90;;;;;;5031467;28;20176;-73
2021/03/23 02:32:40;;;;;;;;;;;7.20;99.90;;;;;;5035703;28;20057;-75
2021/03/23 02:35:07;;;;;;;49.00;27.90;;;7.20;99.90;;;;;;5034704;28;20007;-75
2021/03/23 02:37:33;;;;;;;48.50;27.73;;;7.10;99.90;;;;;;5034746;28;20148;-73
2021/03/23 02:40:00;;;;;;;51.00;29.73;;;7.10;99.90;;;;;;5034847;28;20144;-75
2021/03/23 02:42:27;;;;;;;47.20;29.15;;;7.20;99.90;;;;;;5034939;28;20092;-75
2021/03/23 02:44:53;;;;;;;47.90;29.92;;;7.20;99.90;;;;;;5035001;28;20041;-74
2021/03/23 02:47:20;;;;;;;46.00;29.35;;;7.20;99.90;;;;;;5034344;28;20144;-73
2021/03/23 02:49:46;;;;;;;52.15;29.77;;;7.20;99.90;;;;;;5034410;28;20136;-73
2021/03/23 02:52:14;;;;;;;52.28;30.40;;;7.20;99.90;;;;;;5034545;28;20137;-74
2021/03/23 02:54:40;;;;;;;48.65;29.27;;;7.20;99.90;;;;;;5034672;28;20089;-73
2021/03/23 02:57:09;;;;;;;55.47;31.60;;;7.20;99.90;;;;;;5034153;28;20092;-75
2021/03/23 02:59:35;;;;;;;51.00;30.35;;;7.20;99.90;;;;;;5034868;28;20518;-74
2021/03/23 03:02:03;;;;;;;55.08;31.42;;;7.20;99.90;;;;;;5034636;28;20461;-75
2021/03/23 03:04:29;;;;;;;57.42;31.48;;;7.20;99.90;;;;;;5034676;28;20464;-74
2021/03/23 03:06:56;;;;;;;55.28;31.80;;;7.20;99.90;;;;;;5033998;28;20140;-75
2021/03/23 03:09:22;;;;;;;51.55;30.38;;;7.30;99.90;;;;;;5034246;28;20122;-75
2021/03/23 03:11:50;;;;;;;63.53;31.27;;;7.30;99.90;;;;;;5034232;28;20084;-74
2021/03/23 03:14:17;;;;;;;50.00;30.20;;;7.30;99.90;;;;;;5034323;28;20080;-73
2021/03/23 03:16:44;;;;;;;51.55;30.88;;;7.30;99.90;;;;;;5033937;28;20132;-72
2021/03/23 03:19:10;;;;;;;50.92;30.98;;;7.30;99.90;;;;;;5034020;28;20153;-75
2021/03/23 03:21:36;;;;;;;48.75;30.98;;;7.30;99.90;;;;;;5034154;28;20092;-73
2021/03/23 03:24:04;;;;;;;48.88;31.38;;;7.30;99.90;;;;;;5034171;28;20137;-76
2021/03/23 03:26:30;;;;;;;49.97;31.30;;;7.40;99.90;;;;;;5033816;28;20133;-73
2021/03/23 03:28:56;;;;;;;44.78;29.63;;;7.40;99.90;;;;;;5034032;28;20132;-73
2021/03/23 03:31:26;;;;;;;47.97;30.05;;;7.30;99.90;;;;;;5033921;28;20132;-73
2021/03/23 03:33:53;;;;;;;46.13;30.10;;;7.30;99.90;;;;;;5033846;28;20478;-74
2021/03/23 03:36:21;;;;;;;49.10;31.35;;;7.30;99.90;;;;;;5033495;28;20061;-73
2021/03/23 03:38:48;;;;;;;48.95;30.40;;;7.30;99.90;;;;;;5033715;28;20171;-74
2021/03/23 03:41:14;;;;;;;49.75;31.10;;;7.30;99.90;;;;;;5033490;28;20423;-75
2021/03/23 03:43:42;;;;;;;50.25;30.20;;;7.40;99.90;;;;;;5033492;28;20490;-74
2021/03/23 03:46:09;;;;;;;46.10;30.08;;;7.40;99.90;;;;;;5033803;28;20129;-73
2021/03/23 03:48:36;;;;;;;48.50;30.05;;;7.40;99.90;;;;;;5033782;28;20049;-74
2021/03/23 03:51:03;;;;;;;50.42;30.40;;;7.40;99.90;;;;;;5033404;28;20057;-76
2021/03/23 03:53:30;;;;;;;50.33;31.20;;;7.40;99.90;;;;;;5033587;28;20053;-74
2021/03/23 03:55:57;;;;;;;44.42;29.48;;;7.40;99.90;;;;;;5033771;28;20102;-73
2021/03/23 03:58:23;;;;;;;48.28;30.20;;;7.50;99.90;;;;;;5033327;28;20535;-75
2021/03/23 04:00:50;;;;;;;44.78;30.17;;;7.40;99.90;;;;;;5033601;28;20140;-73
2021/03/23 04:03:18;;;;;;;46.10;31.02;;;7.50;99.90;;;;;;5033552;28;20122;-74
2021/03/23 04:05:47;;;;;;;44.00;28.98;;;7.50;99.90;;;;;;5033209;28;20176;-75
2021/03/23 04:08:15;;;;;;;49.65;31.08;;;7.50;99.90;;;;;;5033022;28;20089;-74
2021/03/23 04:10:42;;;;;;;49.60;31.15;;;7.50;99.90;;;;;;5033285;28;20050;-74
2021/03/23 04:13:09;;;;;;;49.72;29.63;;;7.50;99.90;;;;;;5034666;28;20412;-74
2021/03/23 04:15:38;;;;;;;55.85;30.50;;;7.50;99.90;;;;;;5034271;28;20123;-74
2021/03/23 04:18:06;;;;;;;49.08;30.55;;;7.40;99.90;;;;;;5032853;28;20053;-75
2021/03/23 04:20:33;;;;;;;49.05;29.70;;;7.50;99.90;;;;;;5032684;28;20184;-75
2021/03/23 04:23:01;;;;;;;48.97;30.98;;;7.50;99.90;;;;;;5033129;28;20132;-74
2021/03/23 04:25:31;;;;;;;51.42;30.23;;;7.50;99.90;;;;;;5033025;28;20045;-75
2021/03/23 04:27:58;;;;;;;46.85;30.15;;;7.50;99.90;;;;;;5032415;28;20128;-75
2021/03/23 04:30:25;;;;;;;51.30;29.63;;;7.50;99.90;;;;;;5032780;28;20553;-74
2021/03/23 04:32:55;;;;;;;44.75;29.73;;;7.40;99.90;;;;;;5032644;28;20056;-75
2021/03/23 04:35:26;;;;;;;54.22;31.45;;;7.40;99.90;;;;;;5032789;28;20151;-76
2021/03/23 04:37:53;;;;;;;44.60;29.52;;;7.40;99.90;;;;;;5032804;28;20588;-74
2021/03/23 04:40:21;;;;;;;47.55;29.58;;;7.40;99.90;;;;;;5033403;28;20223;-75
2021/03/23 04:42:47;;;;;;;49.88;30.60;;;7.40;99.90;;;;;;5034234;28;20057;-75
2021/03/23 04:45:15;;;;;;;48.75;29.50;;;7.40;99.90;;;;;;5033924;28;20077;-75
2021/03/23 04:47:42;;;;;;;52.45;31.92;;;7.40;99.90;;;;;;5033157;28;20136;-74
2021/03/23 04:50:09;;;;;;;50.67;30.98;;;7.30;99.90;;;;;;5051601;23;20057;-78
2021/03/23 04:52:36;;;;;;;53.92;30.67;;;7.30;99.90;;;;;;5025899;28;20128;-78
2021/03/23 04:55:03;;;;;;;56.55;30.52;;;7.30;99.90;;;;;;5034771;28;20081;-79
2021/03/23 04:57:30;;;;;;;53.10;29.25;;;7.20;99.90;;;;;;5034872;28;20057;-78
2021/03/23 04:59:56;;;;;;;54.88;29.45;;;7.10;99.90;;;;;;5034875;28;20076;-79
2021/03/23 05:02:22;;;;;;;51.85;29.73;;;7.10;99.90;;;;;;5035530;28;20502;-78
2021/03/23 05:04:49;;;;;;;49.10;29.88;;;7.10;99.90;;;;;;5035178;28;20551;-79
2021/03/23 05:07:15;;;;;;;51.22;30.08;;;7.10;99.90;;;;;;5034541;28;20136;-78
2021/03/23 05:09:42;;;;;;;52.13;30.30;;;7.20;99.90;;;;;;5034586;28;20065;-79
2021/03/23 05:12:09;;;;;;;55.03;30.20;;;7.20;99.90;;;;;;5033360;28;20099;-79
2021/03/23 05:14:36;;;;;;;54.72;29.80;;;7.30;99.90;;;;;;5033293;28;20128;-79
2021/03/23 05:17:03;;;;;;;50.33;30.60;;;7.30;99.90;;;;;;5033652;28;20053;-78
2021/03/23 05:19:30;;;;;;;51.90;29.80;;;7.30;99.90;;;;;;5033489;28;20133;-79
2021/03/23 05:21:56;;;;;;;53.47;31.75;;;7.30;99.90;;;;;;5033386;28;20050;-79
2021/03/23 05:24:22;;;;;;;55.55;31.02;;;7.30;99.90;;;;;;5034691;28;20137;-78
2021/03/23 05:26:49;;;;;;;47.50;28.33;;;7.30;99.90;;;;;;5033782;28;20053;-78
2021/03/23 05:29:15;;;;;;;51.58;30.58;;;7.30;99.90;;;;;;5032107;28;20191;-78
2021/03/23 05:31:43;;;;;;;55.40;30.73;;;7.30;99.90;;;;;;5032500;28;20049;-79
2021/03/23 05:34:12;;;;;;;56.72;31.27;;;7.30;99.90;;;;;;5032144;28;20057;-78
2021/03/23 05:36:41;;;;;;;52.70;29.58;;;7.30;99.90;;;;;;5032348;28;20128;-78
2021/03/23 05:39:07;;;;;;;49.60;29.38;;;7.30;99.90;;;;;;5033021;28;20092;-78
2021/03/23 05:41:41;;;;;;;54.30;30.27;;;7.40;99.90;;;;;;5036072;28;20085;-79
2021/03/23 05:44:20;;;;;;;53.85;29.90;;;7.30;99.90;;;;;;5035154;28;20049;-79
2021/03/23 05:46:48;;;;;;;53.92;29.38;;;7.30;99.90;;;;;;5034049;28;20049;-79
2021/03/23 05:49:31;;;;;;;48.95;30.73;;;7.30;99.90;;;;;;5034999;28;20094;-78
2021/03/23 05:52:03;;;;;;;48.08;29.23;;;7.40;99.90;;;;;;5032273;28;20403;-78
2021/03/23 05:54:43;;;;;;;49.08;29.10;;;7.30;99.90;;;;;;5034507;28;20069;-78
2021/03/23 05:57:22;;;;;;;50.83;29.30;;;7.30;99.90;;;;;;5036086;28;20480;-78
2021/03/23 05:59:55;;;;;;;46.42;29.73;;;7.30;99.90;;;;;;5034939;28;20552;-79
2021/03/23 06:02:28;;;;;;;52.85;30.95;;;7.30;99.90;;;;;;5034357;28;20398;-78
2021/03/23 06:05:07;;;;;;;51.92;29.55;;;7.30;99.90;;;;;;5039112;28;20049;-79
2021/03/23 06:07:37;;;;;;;50.17;30.23;;;7.40;99.90;;;;;;5039712;28;20132;-79
2021/03/23 06:10:15;;;;;;;50.47;29.83;;;7.40;99.90;;;;;;5040682;28;20053;-78
2021/03/23 06:12:47;;;;;;;51.40;29.77;;;7.40;99.90;;;;;;5039407;28;20128;-78
2021/03/23 06:15:23;;;;;;;47.22;29.30;;;7.50;99.90;;;;;;5039100;28;20179;-78
2021/03/23 06:17:58;;;;;;;49.53;30.17;;;7.50;99.90;;;;;;5041194;28;20060;-78
2021/03/23 06:20:55;;;;;;;52.20;31.13;;;7.50;99.90;;;;;;5051991;28;20061;-78
2021/03/23 06:24:00;;;;;;;51.72;29.40;;;7.40;99.90;;;;;;5043905;28;20128;-78
2021/03/23 06:26:45;;;;;;;54.80;30.00;;;7.40;99.90;;;;;;5038663;28;20053;-78
2021/03/23 06:29:28;;;;;;;48.92;29.48;;;7.50;99.90;;;;;;5037066;28;20169;-77
2021/03/23 06:32:23;;;;;;;50.83;29.53;;;7.50;99.90;;;;;;5037282;28;20049;-78
2021/03/23 06:34:55;;;;;;;50.22;29.65;;;7.50;99.90;;;;;;5036127;28;20350;-77
2021/03/23 06:37:25;;;;;;;55.65;29.58;;;7.50;99.90;;;;;;5035755;28;20056;-78
2021/03/23 06:39:51;;;;;;;45.97;29.83;;;7.50;99.90;;;;;;5036264;28;20081;-78
2021/03/23 06:42:32;;;;;;;50.55;30.13;;;7.50;99.90;;;;;;5037253;28;20136;-77
2021/03/23 06:45:32;;;;;;;60.13;31.17;;;7.50;99.90;;;;;;5035532;28;20056;-77
2021/03/23 06:48:20;;;;;;;51.72;29.17;;;7.60;99.90;;;;;;5021024;28;20057;-77
2021/03/23 06:50:48;;;;;;;44.95;29.27;;;7.60;99.90;;;;;;5034915;28;20045;-76
2021/03/23 06:53:16;;;;;;;47.10;29.13;;;7.60;99.90;;;;;;5036335;28;20053;-78
2021/03/23 06:55:45;;;;;;;49.53;28.63;;;7.70;99.90;;;;;;5036825;28;20483;-77
2021/03/23 06:58:35;;;;;;;46.65;28.98;;;7.80;99.90;;;;;;5034694;28;20534;-76
2021/03/23 07:01:17;;;;;;;51.03;28.90;;;7.80;99.90;;;;;;5012165;28;20053;-76
2021/03/23 07:03:45;;;;;;;49.63;29.15;;;7.80;99.90;;;;;;5033994;28;20045;-77
2021/03/23 07:06:33;;;;;;;49.00;28.90;;;7.80;99.90;;;;;;5031094;28;20057;-75
2021/03/23 07:09:11;;;;;;;54.80;29.80;;;7.90;99.90;;;;;;5028280;28;20124;-77
2021/03/23 07:11:56;;;;;;;49.25;28.92;;;8.00;99.90;;;;;;5033990;28;20060;-77
2021/03/23 07:14:29;;;;;;;43.47;27.63;;;8.00;99.90;;;;;;5035582;28;20061;-77
2021/03/23 07:17:15;;;;;;;45.80;30.40;;;8.00;99.90;;;;;;5035868;28;20057;-76
2021/03/23 07:19:46;;;;;;;46.63;28.85;;;8.20;99.90;;;;;;5034571;28;20056;-77
2021/03/23 07:22:19;;;;;;;45.67;28.83;;;8.20;99.90;;;;;;5036870;28;20095;-77
2021/03/23 07:24:54;;;;;;;46.28;28.00;;;8.20;99.90;;;;;;5035832;28;20045;-77
2021/03/23 07:27:22;;;;;;;52.40;29.77;;;8.20;99.90;;;;;;5035851;28;20134;-77
2021/03/23 07:29:49;;;;;;;44.55;27.48;;;8.30;99.90;;;;;;5035927;28;20065;-77
2021/03/23 07:32:34;;;;;;;45.25;28.17;;;8.30;99.90;;;;;;5034958;28;20056;-77
2021/03/23 07:35:08;;;;;;;46.08;29.27;;;8.40;99.90;;;;;;5035476;28;20212;-77
2021/03/23 07:37:44;;;;;;;43.08;28.25;;;8.50;99.90;;;;;;5035070;28;20137;-77
2021/03/23 07:40:31;;;;;;;45.17;27.88;;;8.50;99.90;;;;;;5034248;28;20506;-77
2021/03/23 07:43:17;;;;;;;43.83;27.48;;;8.60;99.90;;;;;;5032457;28;20070;-77
2021/03/23 07:45:53;;;;;;;37.70;26.70;;;8.60;99.90;;;;;;5036205;28;20080;-78
2021/03/23 07:48:24;;;;;;;40.83;26.52;;;8.60;99.90;;;;;;5035398;28;20472;-78
2021/03/23 07:51:00;;;;;;;38.33;25.70;;;8.60;99.90;;;;;;5035782;28;20085;-78
2021/03/23 07:53:35;;;;;;;38.35;24.77;;;8.50;99.90;;;;;;5037204;28;20573;-78
2021/03/23 07:56:09;;;;;;;40.15;25.58;;;8.40;99.90;;;;;;5037694;28;20077;-78
2021/03/23 07:58:44;;;;;;;43.67;25.55;;;8.40;99.90;;;;;;5036590;28;20049;-79
2021/03/23 08:01:21;;;;;;;39.40;25.85;;;8.30;99.90;;;;;;5035156;28;20136;-78
2021/03/23 08:04:05;;;;;;;43.00;25.90;;;8.30;99.90;;;;;;5032340;28;20521;-78
2021/03/23 08:06:39;;;;;;;41.92;24.92;;;8.30;99.90;;;;;;5031535;28;20045;-78
2021/03/23 08:09:47;;;;;;;48.90;26.27;;;8.30;99.90;;;;;;5035474;28;20151;-77
2021/03/23 08:12:39;;;;;;;39.83;24.98;;;8.40;99.90;;;;;;5016536;28;20132;-78
2021/03/23 08:15:37;;;;;;;39.03;25.02;;;8.40;99.90;;;;;;5032354;28;20494;-79
2021/03/23 08:18:26;;;;;;;37.42;24.92;;;8.50;99.90;;;;;;5008054;28;20065;-79
2021/03/23 08:21:24;;;;;;;39.25;24.90;;;8.60;99.90;;;;;;5035494;28;20056;-78
2021/03/23 08:24:09;;;;;;;41.08;24.98;;;8.70;99.90;;;;;;5038859;28;20089;-79
2021/03/23 08:26:52;;;;;;;38.78;25.23;;;8.80;99.90;;;;;;5030136;28;20077;-78
2021/03/23 08:29:25;;;;;;;35.40;24.30;;;8.90;99.90;;;;;;5014013;28;20707;-79
2021/03/23 08:32:09;;;;;;;40.28;24.75;;;9.00;99.90;;;;;;5011753;28;20100;-79
2021/03/23 08:35:06;;;;;;;39.58;24.77;;;9.00;99.90;;;;;;5009202;28;20057;-78
2021/03/23 08:37:49;;;;;;;42.45;24.20;;;9.10;99.90;;;;;;5006381;28;20080;-78
2021/03/23 08:40:26;;;;;;;34.28;24.75;;;9.10;99.90;;;;;;5005571;28;20565;-78
2021/03/23 08:42:54;;;;;;;40.05;23.58;;;9.20;99.90;;;;;;5009197;28;20077;-78
2021/03/23 08:45:25;;;;;;;37.92;23.10;;;9.30;99.90;;;;;;5006446;28;20178;-79
2021/03/23 08:47:57;;;;;;;40.83;23.60;;;9.30;99.90;;;;;;5010585;28;20049;-79
2021/03/23 08:50:27;;;;;;;38.20;22.25;;;9.30;99.90;;;;;;5006410;28;20046;-79
2021/03/23 08:52:56;;;;;;;41.03;23.60;;;9.40;99.90;;;;;;5010578;28;20128;-80
2021/03/23 08:55:45;;;;;;;35.03;24.75;;;9.40;99.90;;;;;;5011757;28;20052;-79
2021/03/23 08:58:18;;;;;;;33.42;22.70;;;9.40;99.90;;;;;;5017904;28;20058;-79
2021/03/23 09:00:56;;;;;;;38.28;23.35;;;9.50;99.90;;;;;;5018237;28;20111;-80
2021/03/23 09:03:39;;;;;;;37.95;22.13;;;9.50;99.90;;;;;;5039473;28;20052;-80
2021/03/23 09:06:06;;;;;;;28.45;18.20;;;9.60;99.90;;;;;;5038097;28;20069;-79
2021/03/23 09:08:55;;;;;;;34.45;22.05;;;9.60;99.90;;;;;;5017526;28;20108;-79
2021/03/23 09:12:00;;;;;;;37.00;23.00;;;9.70;99.90;;;;;;5015272;28;20061;-77
2021/03/23 09:14:30;;;;;;;36.40;21.83;;;9.90;99.90;;;;;;5019014;28;20053;-78
2021/03/23 09:17:19;;;;;;;30.63;20.77;;;10.10;99.90;;;;;;5016137;28;20045;-79
2021/03/23 09:19:55;;;;;;;39.35;21.98;;;10.30;99.90;;;;;;5006515;28;20054;-79
2021/03/23 09:22:38;;;;;;;33.95;21.58;;;10.40;99.90;;;;;;5002699;28;20050;-78
2021/03/23 09:25:43;;;;;;;41.25;21.88;;;10.50;99.90;;;;;;5015390;28;20046;-80
2021/03/23 09:28:11;;;;;;;36.85;23.17;;;10.60;99.90;;;;;;5008852;28;20430;-78
2021/03/23 09:30:57;;;;;;;32.10;21.67;;;10.60;99.90;;;;;;5001910;28;20065;-78
2021/03/23 09:33:38;;;;;;;31.58;21.42;;;10.80;99.90;;;;;;5009154;28;20054;-79
2021/03/23 09:36:38;;;;;;;34.08;22.33;;;10.90;99.90;;;;;;5009093;28;20125;-79
2021/03/23 09:39:31;;;;;;;33.38;21.52;;;11.00;99.90;;;;;;5007024;28;20096;-78
2021/03/23 09:42:26;;;;;;;39.53;22.30;;;11.20;99.90;;;;;;5006793;28;20042;-78
2021/03/23 09:45:13;;;;;;;31.35;21.00;;;11.20;99.90;;;;;;5003418;28;20056;-79
2021/03/23 09:47:51;;;;;;;32.35;22.23;;;11.30;99.90;;;;;;5002488;28;20485;-79
2021/03/23 09:50:33;;;;;;;33.38;22.63;;;11.40;99.90;;;;;;4999254;28;20572;-78
2021/03/23 09:53:02;;;;;;;36.90;22.33;;;11.30;99.90;;;;;;5008869;28;20136;-76
2021/03/23 09:55:30;;;;;;;34.85;22.27;;;11.20;99.90;;;;;;5008667;28;20044;-77
2021/03/23 09:57:56;;;;;;;35.25;21.60;;;11.10;99.90;;;;;;5010165;28;20046;-78
2021/03/23 10:00:28;;;;;;;30.40;22.17;;;11.10;99.90;;;;;;5013121;28;20054;-78
2021/03/23 10:02:56;;;;;;;32.72;20.73;;;11.10;99.90;;;;;;5009826;28;20085;-78
2021/03/23 10:05:26;;;;;;;32.40;21.40;;;11.10;99.90;;;;;;5005745;28;20145;-78
2021/03/23 10:08:09;;;;;;;31.23;20.73;;;11.10;99.90;;;;;;4997136;28;20133;-78
2021/03/23 10:10:39;;;;;;;32.65;19.55;;;11.20;99.90;;;;;;5022014;23;20065;-78
2021/03/23 10:13:21;;;;;;;35.13;20.00;;;11.30;99.90;;;;;;5011149;28;20038;-77
2021/03/23 10:15:48;;;;;;;33.63;20.57;;;11.30;99.90;;;;;;4996613;28;20128;-78
2021/03/23 10:18:20;;;;;;;32.95;20.65;;;11.20;99.90;;;;;;5006454;28;20089;-77
2021/03/23 10:20:54;;;;;;;37.30;21.90;;;11.30;99.90;;;;;;4986776;28;20077;-79
2021/03/23 10:23:22;;;;;;;34.47;19.88;;;11.50;99.90;;;;;;5003086;28;20141;-79
2021/03/23 10:25:48;;;;;;;36.58;20.05;;;11.50;99.90;;;;;;4999563;28;20042;-79
2021/03/23 10:28:25;;;;;;;38.60;20.55;;;11.50;99.90;;;;;;4984824;28;20134;-79
2021/03/23 10:31:02;;;;;;;36.25;20.02;;;11.60;99.90;;;;;;5015838;23;20050;-78
2021/03/23 10:33:35;;;;;;;34.15;20.35;;;11.60;99.90;;;;;;4991518;28;20132;-81
2021/03/23 10:36:04;;;;;;;33.15;19.30;;;11.60;99.90;;;;;;4992664;28;20055;-83
2021/03/23 10:38:40;;;;;;;34.92;20.35;;;11.60;99.90;;;;;;4990413;28;20078;-83
2021/03/23 10:41:28;;;;;;;31.77;20.65;;;11.60;99.90;;;;;;4991901;28;20046;-82
2021/03/23 10:44:19;;;;;;;38.17;21.02;;;11.70;99.90;;;;;;5000195;28;20358;-82
2021/03/23 10:46:49;;;;;;;28.38;19.90;;;11.70;99.90;;;;;;4999522;28;20078;-82
2021/03/23 10:49:29;;;;;;;30.20;19.08;;;11.80;99.90;;;;;;4999680;28;20442;-82
2021/03/23 10:51:58;;;;;;;32.20;19.08;;;12.00;99.90;;;;;;4997879;28;20056;-81
2021/03/23 10:54:27;;;;;;;30.15;19.23;;;12.00;99.90;;;;;;5002080;28;20153;-81
2021/03/23 10:56:55;;;;;;;27.67;18.73;;;12.10;99.90;;;;;;5002055;28;20065;-82
2021/03/23 10:59:28;;;;;;;30.33;19.27;;;12.20;99.90;;;;;;5000984;28;20050;-82
2021/03/23 11:02:04;;;;;;;33.15;18.75;;;12.20;99.90;;;;;;5004333;28;20141;-82
2021/03/23 11:04:34;;;;;;;27.70;19.20;;;12.30;99.90;;;;;;5009740;28;20057;-82
2021/03/23 11:07:17;;;;;;;28.65;19.70;;;12.40;99.90;;;;;;5011891;28;20046;-82
2021/03/23 11:09:43;;;;;;;28.65;19.05;;;12.60;99.90;;;;;;5009221;28;20051;-82
2021/03/23 11:12:10;;;;;;;33.75;19.38;;;12.80;99.90;;;;;;5004481;28;20129;-81
2021/03/23 11:14:37;;;;;;;37.78;19.58;;;12.90;99.90;;;;;;5004191;28;20140;-80
2021/03/23 11:17:04;;;;;;;33.67;20.05;;;12.90;99.90;;;;;;5003582;28;20053;-80
2021/03/23 11:19:39;;;;;;;32.15;20.98;;;12.90;99.90;;;;;;5003528;28;20046;-80
2021/03/23 11:22:11;;;;;;;32.70;20.15;;;13.10;99.90;;;;;;5010775;28;20044;-79
2021/03/23 11:24:38;;;;;;;28.33;20.48;;;13.00;99.90;;;;;;5013826;28;20057;-81
2021/03/23 11:27:04;;;;;;;32.78;19.50;;;13.00;99.90;;;;;;5015600;28;20050;-81
2021/03/23 11:29:35;;;;;;;31.25;19.58;;;13.10;99.90;;;;;;5016597;28;20131;-79
2021/03/23 11:32:24;;;;;;;29.73;20.80;;;13.30;99.90;;;;;;5013778;28;20038;-80
2021/03/23 11:35:02;;;;;;;30.67;20.90;;;13.40;99.90;;;;;;5012387;28;20042;-83
2021/03/23 11:37:29;;;;;;;32.47;20.90;;;13.40;99.90;;;;;;5009931;28;20049;-82
2021/03/23 11:39:58;;;;;;;31.63;20.90;;;13.50;99.90;;;;;;5005838;28;20050;-81
2021/03/23 11:42:30;;;;;;;34.67;21.42;;;13.40;99.90;;;;;;5001953;28;20054;-82
2021/03/23 11:45:04;;;;;;;33.22;23.15;;;13.50;99.90;;;;;;4997291;28;20050;-81
2021/03/23 11:47:40;;;;;;;39.03;23.20;;;13.60;99.90;;;;;;4997323;28;20054;-80
2021/03/23 11:50:10;;;;;;;27.17;21.45;;;13.60;99.90;;;;;;5000993;28;20093;-81
2021/03/23 11:52:38;;;;;;;31.42;22.23;;;13.60;99.90;;;;;;5008309;28;20054;-80
2021/03/23 11:55:09;;;;;;;34.03;22.58;;;13.50;99.90;;;;;;5017143;28;20042;-81
2021/03/23 11:57:52;;;;;;;37.13;22.67;;;13.30;99.90;;;;;;5013510;28;20054;-81
2021/03/23 12:00:22;;;;;;;36.90;22.38;;;13.20;99.90;;;;;;5021049;28;20085;-84
2021/03/23 12:02:52;;;;;;;43.97;23.85;;;13.30;99.90;;;;;;5008118;28;20049;-84
2021/03/23 12:05:22;;;;;;;33.40;22.67;;;13.10;99.90;;;;;;5000477;28;20050;-81
2021/03/23 12:08:00;;;;;;;37.95;23.95;;;13.10;99.90;;;;;;5000580;28;20061;-81
2021/03/23 12:10:31;;;;;;;38.88;22.60;;;13.00;99.90;;;;;;5001563;28;20069;-81
2021/03/23 12:13:07;;;;;;;33.35;21.83;;;13.00;99.90;;;;;;5005916;28;20058;-84
2021/03/23 12:15:37;;;;;;;34.15;22.58;;;12.90;99.90;;;;;;5006072;28;20046;-82
2021/03/23 12:18:08;;;;;;;33.25;23.45;;;12.90;99.90;;;;;;5004228;28;20070;-83
2021/03/23 12:20:37;;;;;;;34.65;22.10;;;12.80;99.90;;;;;;5004834;28;20050;-84
2021/03/23 12:23:05;;;;;;;39.55;24.42;;;12.60;99.90;;;;;;5004463;28;20057;-83
2021/03/23 12:25:32;;;;;;;32.97;22.25;;;12.50;99.90;;;;;;5004240;28;20692;-83
2021/03/23 12:27:58;;;;;;;34.53;23.45;;;12.60;99.90;;;;;;5002748;28;20082;-80
2021/03/23 12:30:26;;;;;;;33.35;21.10;;;12.70;99.90;;;;;;5005685;28;20473;-78
2021/03/23 12:32:53;;;;;;;36.88;22.90;;;12.70;99.90;;;;;;5009859;28;20423;-81
2021/03/23 12:35:22;;;;;;;31.70;21.25;;;12.70;99.90;;;;;;5001490;28;20101;-81
2021/03/23 12:37:57;;;;;;;36.47;22.40;;;12.70;99.90;;;;;;5008218;28;20112;-81
2021/03/23 12:40:25;;;;;;;32.05;21.27;;;12.70;99.90;;;;;;5008495;28;20104;-79
2021/03/23 12:42:55;;;;;;;31.00;20.80;;;12.70;99.90;;;;;;5009206;28;20134;-80
2021/03/23 12:45:29;;;;;;;34.10;21.45;;;12.70;99.90;;;;;;5008391;28;20046;-81
2021/03/23 12:47:55;;;;;;;35.35;21.88;;;12.80;99.90;;;;;;5008521;28;20050;-81
2021/03/23 12:50:23;;;;;;;33.97;21.10;;;12.80;99.90;;;;;;5009704;28;20553;-80
2021/03/23 12:52:50;;;;;;;36.80;21.05;;;13.00;99.90;;;;;;5013194;28;20050;-85
2021/03/23 12:55:21;;;;;;;30.98;19.73;;;13.00;99.90;;;;;;5013319;28;20046;-81
2021/03/23 12:57:50;;;;;;;32.03;20.48;;;13.20;99.90;;;;;;5008520;28;20352;-82